Providence, Indiana
Current Conditions -  °F | °C
As of 11:15 AM on Friday 21 Nov 2014 (Local Time) from K1II Reporting Station
Clear Clear  
Wind Chill: 20°   Ceiling: Unl
Heat Index: 28°   Visibility: 10mi
Dew Point: 14°   Wind: 9mph
Humidity: 55%   Direction: 130°SE
Pressure: 30.53"   Gusts: NA
Location:  39.4919°N, 86.1953°W
Report Text: K1II 211615Z AUTO 13008KT 10SM CLR M02/M10 A3053 RMK AO2
Loading
Personal Weather Stations






























Interactive Weather Map New forecast layout! Learn more

10-Day Weather Forecast

Advertisements
Track Severe Weather on mobile